Time;durP1;ratioP1;P1;durP2;ratioP2;P2;SDS_P1;SDS_P2;PMS_P1;PMS_P2;Temp;Humidity;BMP_temperature;BMP_pressure;BME280_temperature;BME280_humidity;BME280_pressure;Samples;Min_cycle;Max_cycle;Signal;HPM_P1;HPM_P2
2023/07/12 00:00:36;;;;;;;10.10;6.22;;;;;23.70;98089.00;;;;5010384;28;20041;-63
2023/07/12 00:03:03;;;;;;;6.07;5.37;;;;;23.70;98095.00;;;;5025525;28;20053;-64
2023/07/12 00:05:30;;;;;;;6.53;5.40;;;;;23.70;98097.00;;;;5012173;28;20099;-64
2023/07/12 00:07:57;;;;;;;9.43;6.18;;;;;23.60;98101.00;;;;4995216;28;20096;-64
2023/07/12 00:10:28;;;;;;;9.05;5.95;;;;;23.60;98097.00;;;;5011894;28;20454;-64
2023/07/12 00:12:55;;;;;;;9.55;5.72;;;;;23.50;98098.00;;;;5011293;28;20503;-64
2023/07/12 00:15:28;;;;;;;7.18;6.15;;;;;23.40;98093.00;;;;4994833;28;20418;-64
2023/07/12 00:17:55;;;;;;;6.63;5.90;;;;;23.40;98093.00;;;;5012245;28;20419;-64
2023/07/12 00:20:27;;;;;;;9.20;6.10;;;;;23.40;98087.00;;;;5011283;28;20550;-64
2023/07/12 00:22:55;;;;;;;6.70;5.20;;;;;23.50;98075.00;;;;5011253;28;20136;-64
2023/07/12 00:25:25;;;;;;;9.77;5.45;;;;;23.40;98084.00;;;;5011765;28;20117;-63
2023/07/12 00:27:51;;;;;;;8.85;5.35;;;;;23.40;98082.00;;;;5012075;28;20054;-64
2023/07/12 00:30:30;;;;;;;6.53;5.68;;;;;23.40;98073.00;;;;5026621;28;20038;-63
2023/07/12 00:33:02;;;;;;;6.93;5.68;;;;;23.40;98079.00;;;;5027117;28;20096;-64
2023/07/12 00:35:31;;;;;;;9.10;5.50;;;;;23.40;98082.00;;;;5011527;28;20104;-64
2023/07/12 00:37:59;;;;;;;13.60;5.85;;;;;23.40;98081.00;;;;5030982;28;20054;-64
2023/07/12 00:40:41;;;;;;;7.13;5.57;;;;;23.30;98070.00;;;;5013628;28;20153;-64
2023/07/12 00:43:29;;;;;;;9.85;5.95;;;;;23.30;98086.00;;;;5014544;28;20078;-64
2023/07/12 00:45:59;;;;;;;7.35;5.68;;;;;23.20;98099.00;;;;5014380;28;20053;-63
2023/07/12 00:48:26;;;;;;;9.68;5.35;;;;;23.10;98099.00;;;;5014344;28;20104;-64
2023/07/12 00:50:52;;;;;;;6.57;5.88;;;;;23.20;98100.00;;;;5013510;28;20149;-63
2023/07/12 00:53:23;;;;;;;8.88;5.38;;;;;23.20;98090.00;;;;5014385;28;20042;-64
2023/07/12 00:56:00;;;;;;;9.13;5.13;;;;;23.20;98094.00;;;;5014252;28;20053;-64
2023/07/12 00:58:32;;;;;;;7.95;5.90;;;;;23.20;98103.00;;;;5014476;28;20172;-63
2023/07/12 01:01:02;;;;;;;6.72;5.00;;;;;23.10;98096.00;;;;5030082;28;20073;-64
2023/07/12 01:03:31;;;;;;;8.32;5.30;;;;;23.10;98100.00;;;;5015331;28;20700;-63
2023/07/12 01:05:59;;;;;;;8.65;5.75;;;;;23.20;98086.00;;;;5015171;28;20073;-64
2023/07/12 01:08:27;;;;;;;7.95;5.15;;;;;23.10;98085.00;;;;5015244;28;20049;-64
2023/07/12 01:10:54;;;;;;;7.75;5.53;;;;;23.10;98073.00;;;;5013323;28;20088;-63
2023/07/12 01:13:22;;;;;;;7.95;5.78;;;;;23.10;98068.00;;;;5015347;28;20037;-63
2023/07/12 01:15:49;;;;;;;7.05;5.63;;;;;23.10;98058.00;;;;5015108;28;20129;-64
2023/07/12 01:18:16;;;;;;;8.38;5.38;;;;;23.10;98056.00;;;;5014770;28;20046;-64
2023/07/12 01:20:45;;;;;;;6.60;4.78;;;;;23.10;98051.00;;;;5014106;28;20045;-64
2023/07/12 01:23:12;;;;;;;9.15;5.97;;;;;23.10;98047.00;;;;5014167;28;20045;-64
2023/07/12 01:25:41;;;;;;;7.75;5.40;;;;;23.00;98049.00;;;;5015173;28;20121;-64
2023/07/12 01:28:08;;;;;;;7.10;5.20;;;;;23.00;98050.00;;;;5030047;28;20050;-64
2023/07/12 01:30:37;;;;;;;6.03;5.10;;;;;23.00;98060.00;;;;5014834;28;20133;-64
2023/07/12 01:33:04;;;;;;;7.57;5.18;;;;;23.00;98059.00;;;;5015241;28;20069;-64
2023/07/12 01:35:31;;;;;;;9.32;5.00;;;;;23.00;98061.00;;;;5018094;28;20061;-65
2023/07/12 01:37:58;;;;;;;9.23;5.70;;;;;23.00;98058.00;;;;5023465;28;20376;-63
2023/07/12 01:40:25;;;;;;;8.85;5.22;;;;;22.90;98058.00;;;;5022942;28;20558;-64
2023/07/12 01:42:52;;;;;;;6.30;4.90;;;;;22.80;98055.00;;;;5022197;28;20054;-63
2023/07/12 01:45:18;;;;;;;8.00;4.82;;;;;22.80;98051.00;;;;5024837;28;20140;-64
2023/07/12 01:47:47;;;;;;;8.85;5.05;;;;;22.90;98048.00;;;;5022625;28;20096;-66
2023/07/12 01:50:14;;;;;;;7.72;5.30;;;;;22.90;98041.00;;;;5041010;28;20110;-64
2023/07/12 01:52:40;;;;;;;8.13;4.70;;;;;22.90;98045.00;;;;5027463;28;20057;-64
2023/07/12 01:55:07;;;;;;;5.28;4.70;;;;;22.90;98035.00;;;;5018176;28;20046;-64
2023/07/12 01:57:34;;;;;;;7.85;5.60;;;;;22.90;98034.00;;;;5015887;28;20058;-64
2023/07/12 02:00:00;;;;;;;9.45;4.85;;;;;22.90;98040.00;;;;5013206;28;20089;-66
2023/07/12 02:02:41;;;;;;;9.68;5.40;;;;;22.90;98040.00;;;;5015765;28;20502;-64
2023/07/12 02:05:08;;;;;;;7.95;4.68;;;;;22.90;98037.00;;;;5014101;28;20042;-63
2023/07/12 02:07:35;;;;;;;9.23;4.60;;;;;22.80;98033.00;;;;4997935;28;20575;-65
2023/07/12 02:10:19;;;;;;;10.13;4.50;;;;;22.80;98038.00;;;;5015765;28;20084;-65
2023/07/12 02:12:46;;;;;;;7.03;4.97;;;;;22.80;98035.00;;;;5031305;28;20505;-64
2023/07/12 02:15:13;;;;;;;11.50;5.65;;;;;22.70;98031.00;;;;5016288;28;20052;-64
2023/07/12 02:17:40;;;;;;;8.98;5.10;;;;;22.60;98016.00;;;;5015671;28;20057;-64
2023/07/12 02:20:09;;;;;;;8.52;5.03;;;;;22.60;98030.00;;;;5014203;28;20096;-64
2023/07/12 02:22:37;;;;;;;8.52;5.43;;;;;22.60;98027.00;;;;5015814;28;20045;-64
2023/07/12 02:25:05;;;;;;;6.80;6.00;;;;;22.60;98021.00;;;;5030566;28;20076;-64
2023/07/12 02:27:33;;;;;;;8.02;5.70;;;;;22.60;98016.00;;;;5015530;28;20042;-64
2023/07/12 02:30:00;;;;;;;5.90;5.30;;;;;22.50;98016.00;;;;5017100;28;20048;-64
2023/07/12 02:32:28;;;;;;;9.70;5.32;;;;;22.50;98010.00;;;;5032901;28;20506;-65
2023/07/12 02:34:55;;;;;;;8.38;5.10;;;;;22.40;98010.00;;;;5016471;28;20180;-64
2023/07/12 02:37:21;;;;;;;6.68;5.10;;;;;22.40;98005.00;;;;5015909;28;20054;-64
2023/07/12 02:39:48;;;;;;;7.63;5.15;;;;;22.50;98004.00;;;;4998390;28;20069;-64
2023/07/12 02:42:14;;;;;;;7.07;5.53;;;;;22.50;98002.00;;;;5018760;28;20128;-64
2023/07/12 02:44:41;;;;;;;8.13;4.70;;;;;22.50;98004.00;;;;5016993;28;20129;-64
2023/07/12 02:47:12;;;;;;;12.73;5.30;;;;;22.50;98002.00;;;;5018243;28;20494;-64
2023/07/12 02:49:39;;;;;;;7.53;5.13;;;;;22.50;97994.00;;;;5016725;28;20117;-64
2023/07/12 02:52:07;;;;;;;6.32;5.00;;;;;22.50;97999.00;;;;5032210;28;20533;-63
2023/07/12 02:54:34;;;;;;;8.55;5.10;;;;;22.50;97994.00;;;;5014543;28;20120;-63
2023/07/12 02:57:03;;;;;;;10.45;5.95;;;;;22.40;97999.00;;;;5030188;28;20137;-65
2023/07/12 02:59:31;;;;;;;9.02;4.93;;;;;22.40;98004.00;;;;5028574;28;20077;-65
2023/07/12 03:01:57;;;;;;;9.77;5.70;;;;;22.40;98001.00;;;;5015675;28;20046;-63
2023/07/12 03:04:24;;;;;;;8.73;5.82;;;;;22.40;98007.00;;;;5000575;28;20050;-63
2023/07/12 03:06:51;;;;;;;11.05;5.47;;;;;22.50;98005.00;;;;5037679;28;20053;-65
2023/07/12 03:09:17;;;;;;;11.27;5.35;;;;;22.50;98021.00;;;;5024219;28;20060;-65
2023/07/12 03:11:46;;;;;;;8.00;6.05;;;;;22.60;98021.00;;;;5025046;28;20070;-65
2023/07/12 03:14:17;;;;;;;10.02;5.97;;;;;22.60;98017.00;;;;5024328;28;20053;-65
2023/07/12 03:16:44;;;;;;;8.25;6.05;;;;;22.60;98030.00;;;;5019122;28;20144;-64
2023/07/12 03:19:12;;;;;;;11.15;5.75;;;;;22.60;98030.00;;;;5017145;28;20406;-65
2023/07/12 03:21:39;;;;;;;7.60;5.75;;;;;22.70;98025.00;;;;5016294;28;20042;-65
2023/07/12 03:24:07;;;;;;;9.35;6.03;;;;;22.70;98018.00;;;;5013674;28;20550;-65
2023/07/12 03:26:35;;;;;;;11.05;6.18;;;;;22.70;98022.00;;;;5012137;28;20045;-65
2023/07/12 03:29:03;;;;;;;11.40;6.07;;;;;22.70;98012.00;;;;5012584;28;20046;-65
2023/07/12 03:31:30;;;;;;;8.43;5.78;;;;;22.70;98011.00;;;;5013101;28;20038;-64
2023/07/12 03:33:58;;;;;;;8.93;5.85;;;;;22.70;98021.00;;;;5028052;28;20046;-64
2023/07/12 03:36:30;;;;;;;11.98;6.18;;;;;22.70;98030.00;;;;5012994;28;20100;-64
2023/07/12 03:38:58;;;;;;;9.10;5.88;;;;;22.70;98024.00;;;;5027970;28;20117;-64
2023/07/12 03:41:24;;;;;;;9.45;6.07;;;;;22.70;98030.00;;;;5012224;28;20498;-64
2023/07/12 03:43:51;;;;;;;11.90;5.85;;;;;22.70;98036.00;;;;5011295;28;20144;-64
2023/07/12 03:46:18;;;;;;;11.38;6.35;;;;;22.70;98029.00;;;;5012331;28;20418;-64
2023/07/12 03:48:45;;;;;;;9.18;6.05;;;;;22.80;98030.00;;;;5027534;28;20050;-63
2023/07/12 03:51:14;;;;;;;14.02;6.00;;;;;22.80;98035.00;;;;5010703;28;20561;-64
2023/07/12 03:53:41;;;;;;;8.18;5.40;;;;;22.80;98037.00;;;;5012438;28;20096;-64
2023/07/12 03:56:09;;;;;;;8.75;5.63;;;;;22.80;98048.00;;;;5012348;28;20046;-65
2023/07/12 03:58:38;;;;;;;9.35;6.32;;;;;22.80;98049.00;;;;5011080;28;20081;-64
2023/07/12 04:01:08;;;;;;;14.05;6.47;;;;;22.80;98056.00;;;;5010887;28;20050;-64
2023/07/12 04:03:36;;;;;;;13.15;6.18;;;;;22.80;98058.00;;;;5011527;28;20057;-64
2023/07/12 04:06:03;;;;;;;15.45;5.68;;;;;22.80;98053.00;;;;5012182;28;20117;-63
2023/07/12 04:08:30;;;;;;;8.45;5.75;;;;;22.80;98057.00;;;;5011166;28;20446;-63
2023/07/12 04:10:57;;;;;;;10.07;6.20;;;;;22.80;98073.00;;;;5015207;28;20137;-64
2023/07/12 04:13:25;;;;;;;8.15;5.70;;;;;22.80;98077.00;;;;5015000;28;20050;-64
2023/07/12 04:15:54;;;;;;;12.27;6.13;;;;;22.70;98084.00;;;;5016093;28;20041;-64
2023/07/12 04:18:23;;;;;;;10.88;6.78;;;;;22.80;98088.00;;;;5016164;28;20042;-64
2023/07/12 04:20:50;;;;;;;11.23;5.97;;;;;22.80;98088.00;;;;5015627;28;20068;-64
2023/07/12 04:23:17;;;;;;;11.25;5.80;;;;;22.90;98112.00;;;;5015256;28;20514;-64
2023/07/12 04:25:43;;;;;;;9.25;6.40;;;;;23.00;98111.00;;;;5016309;28;20116;-64
2023/07/12 04:28:10;;;;;;;10.10;5.97;;;;;23.10;98126.00;;;;4998585;28;20053;-65
2023/07/12 04:30:37;;;;;;;13.13;6.07;;;;;23.10;98140.00;;;;5014219;28;20048;-64
2023/07/12 04:33:05;;;;;;;14.32;6.22;;;;;23.10;98142.00;;;;5015813;28;20049;-64
2023/07/12 04:35:37;;;;;;;11.23;5.95;;;;;23.10;98156.00;;;;5014277;28;20050;-64
2023/07/12 04:38:03;;;;;;;13.45;5.95;;;;;23.20;98164.00;;;;5014717;28;20038;-64
2023/07/12 04:40:30;;;;;;;10.77;5.80;;;;;23.20;98176.00;;;;5030332;28;20046;-64
2023/07/12 04:42:56;;;;;;;14.20;5.32;;;;;23.20;98173.00;;;;5015653;28;20121;-64
2023/07/12 04:45:23;;;;;;;13.32;6.25;;;;;23.20;98184.00;;;;5015517;28;20053;-64
2023/07/12 04:47:50;;;;;;;10.00;5.75;;;;;23.20;98188.00;;;;5015947;28;20465;-64
2023/07/12 04:50:17;;;;;;;8.02;5.13;;;;;23.30;98183.00;;;;5015059;28;20038;-64
2023/07/12 04:52:44;;;;;;;11.27;5.80;;;;;23.30;98190.00;;;;5030828;28;20037;-64
2023/07/12 04:55:40;;;;;;;7.82;5.18;;;;;23.30;98193.00;;;;5015334;28;20046;-64
2023/07/12 04:58:12;;;;;;;8.85;5.82;;;;;23.30;98189.00;;;;5022184;28;20507;-65
2023/07/12 05:00:39;;;;;;;11.80;5.30;;;;;23.30;98189.00;;;;5030145;28;20517;-64
2023/07/12 05:03:06;;;;;;;11.32;6.25;;;;;23.30;98197.00;;;;5014086;28;20095;-64
2023/07/12 05:05:33;;;;;;;10.35;5.82;;;;;23.40;98193.00;;;;5013906;28;20046;-64
2023/07/12 05:07:59;;;;;;;12.00;5.82;;;;;23.50;98191.00;;;;5015377;28;20133;-64
2023/07/12 05:10:26;;;;;;;8.73;5.05;;;;;23.60;98194.00;;;;5014354;28;20065;-64
2023/07/12 05:12:53;;;;;;;9.57;5.55;;;;;23.70;98201.00;;;;5013951;28;20033;-64
2023/07/12 05:15:20;;;;;;;9.23;5.75;;;;;23.70;98210.00;;;;5014827;28;20507;-64
2023/07/12 05:17:46;;;;;;;7.38;5.20;;;;;23.70;98207.00;;;;5014898;28;20073;-64
2023/07/12 05:20:14;;;;;;;10.80;6.50;;;;;23.50;98213.00;;;;5013082;28;20045;-65
2023/07/12 05:22:41;;;;;;;12.35;6.53;;;;;23.50;98215.00;;;;5014155;28;20046;-65
2023/07/12 05:25:08;;;;;;;14.75;6.50;;;;;23.60;98209.00;;;;5014608;28;20052;-65
2023/07/12 05:27:35;;;;;;;9.80;5.50;;;;;23.70;98220.00;;;;5014826;28;20042;-64
2023/07/12 05:30:02;;;;;;;20.05;6.35;;;;;23.70;98213.00;;;;5014327;28;20046;-66
2023/07/12 05:32:29;;;;;;;12.18;6.88;;;;;23.70;98210.00;;;;5029940;28;20052;-66
2023/07/12 05:34:55;;;;;;;8.98;6.35;;;;;23.60;98211.00;;;;5013517;28;20053;-66
2023/07/12 05:37:22;;;;;;;8.93;6.05;;;;;23.60;98205.00;;;;5014579;28;20041;-64
2023/07/12 05:39:57;;;;;;;9.93;6.57;;;;;23.70;98209.00;;;;5014766;28;20046;-63
2023/07/12 05:42:23;;;;;;;16.27;8.50;;;;;23.60;98210.00;;;;5015204;28;20052;-65
2023/07/12 05:44:50;;;;;;;15.70;10.00;;;;;23.60;98213.00;;;;5015110;28;20056;-66
2023/07/12 05:47:17;;;;;;;17.75;12.15;;;;;23.50;98209.00;;;;5012899;28;20579;-66
2023/07/12 05:49:44;;;;;;;13.80;10.48;;;;;23.50;98210.00;;;;5013798;28;20091;-65
2023/07/12 05:52:10;;;;;;;19.63;15.30;;;;;23.70;98206.00;;;;5014387;28;20042;-65
2023/07/12 05:54:37;;;;;;;18.55;12.45;;;;;23.70;98200.00;;;;5014478;28;20046;-64
2023/07/12 05:57:04;;;;;;;17.33;14.27;;;;;23.80;98204.00;;;;5014251;28;20042;-64
2023/07/12 05:59:31;;;;;;;21.73;16.83;;;;;23.90;98202.00;;;;5013650;28;20038;-65
2023/07/12 06:01:57;;;;;;;19.38;17.13;;;;;24.00;98198.00;;;;5013644;28;20069;-65
2023/07/12 06:04:24;;;;;;;18.77;16.67;;;;;24.00;98199.00;;;;5014303;28;20477;-65
2023/07/12 06:06:52;;;;;;;20.48;15.93;;;;;24.00;98209.00;;;;5012716;28;20503;-65
2023/07/12 06:09:19;;;;;;;20.00;16.10;;;;;24.00;98208.00;;;;5013486;28;20042;-65
2023/07/12 06:11:46;;;;;;;25.38;17.17;;;;;24.00;98208.00;;;;5014033;28;20069;-65
2023/07/12 06:14:12;;;;;;;24.10;20.02;;;;;23.90;98212.00;;;;5029050;28;20398;-65
2023/07/12 06:16:39;;;;;;;26.70;19.27;;;;;23.90;98213.00;;;;5012762;28;20471;-66
2023/07/12 06:19:06;;;;;;;28.08;19.50;;;;;23.90;98213.00;;;;5013560;28;20046;-66
2023/07/12 06:21:32;;;;;;;23.27;20.08;;;;;23.90;98221.00;;;;5014217;28;20042;-65
2023/07/12 06:23:59;;;;;;;23.60;20.92;;;;;23.80;98214.00;;;;5014048;28;20092;-65
2023/07/12 06:26:27;;;;;;;25.42;21.90;;;;;23.80;98226.00;;;;5012630;28;20473;-65
2023/07/12 06:28:54;;;;;;;23.70;21.08;;;;;23.70;98224.00;;;;5014171;28;20155;-66
2023/07/12 06:31:21;;;;;;;28.67;21.55;;;;;23.70;98239.00;;;;5013515;28;20080;-67
2023/07/12 06:33:48;;;;;;;24.25;20.85;;;;;23.50;98231.00;;;;5013249;28;20050;-66
2023/07/12 06:36:15;;;;;;;31.23;21.35;;;;;23.50;98228.00;;;;5014136;28;20045;-68
2023/07/12 06:38:44;;;;;;;24.17;21.52;;;;;23.70;98228.00;;;;5028951;28;20065;-64
2023/07/12 06:41:11;;;;;;;25.42;20.27;;;;;23.80;98227.00;;;;5012318;28;20224;-65
2023/07/12 06:43:38;;;;;;;28.73;20.88;;;;;23.80;98227.00;;;;5012321;28;20557;-64
2023/07/12 06:46:04;;;;;;;24.45;20.00;;;;;23.90;98231.00;;;;5012394;28;20046;-65
2023/07/12 06:48:31;;;;;;;20.92;18.70;;;;;24.00;98228.00;;;;5011858;28;20049;-64
2023/07/12 06:50:58;;;;;;;21.63;17.65;;;;;24.10;98228.00;;;;5013105;28;20038;-64
2023/07/12 06:53:26;;;;;;;22.27;16.58;;;;;24.20;98228.00;;;;5013759;28;20038;-64
2023/07/12 06:55:54;;;;;;;19.52;15.88;;;;;24.40;98227.00;;;;5013472;28;20049;-64
2023/07/12 06:58:20;;;;;;;18.52;15.25;;;;;24.50;98228.00;;;;5013723;28;20495;-64
2023/07/12 07:00:47;;;;;;;17.83;15.68;;;;;24.50;98234.00;;;;5011987;28;20065;-64
2023/07/12 07:03:16;;;;;;;16.95;14.60;;;;;24.60;98241.00;;;;5013306;28;20073;-64
2023/07/12 07:05:45;;;;;;;18.27;15.63;;;;;24.50;98236.00;;;;5011683;28;20421;-64
2023/07/12 07:08:17;;;;;;;18.88;15.50;;;;;24.60;98248.00;;;;5011735;28;20381;-64
2023/07/12 07:10:47;;;;;;;17.17;15.40;;;;;24.70;98239.00;;;;5012398;28;20442;-65
2023/07/12 07:13:14;;;;;;;18.02;14.88;;;;;24.90;98242.00;;;;5013010;28;20081;-65
2023/07/12 07:15:40;;;;;;;19.58;15.35;;;;;25.10;98247.00;;;;5011479;28;20045;-65
2023/07/12 07:18:08;;;;;;;22.63;15.38;;;;;25.30;98248.00;;;;5012844;28;20052;-65
2023/07/12 07:20:35;;;;;;;18.15;14.80;;;;;25.40;98248.00;;;;5012263;28;20461;-64
2023/07/12 07:23:01;;;;;;;15.55;14.05;;;;;25.50;98255.00;;;;5012559;28;20041;-64
2023/07/12 07:25:28;;;;;;;19.45;15.00;;;;;25.40;98254.00;;;;5012594;28;20046;-65
2023/07/12 07:27:55;;;;;;;20.27;15.20;;;;;25.50;98253.00;;;;5027973;28;20049;-64
2023/07/12 07:30:22;;;;;;;17.30;15.60;;;;;25.40;98263.00;;;;5012314;28;20048;-64
2023/07/12 07:32:49;;;;;;;16.92;15.23;;;;;25.30;98256.00;;;;5012770;28;20458;-64
2023/07/12 07:35:16;;;;;;;16.40;14.10;;;;;25.40;98255.00;;;;5011314;28;20061;-64
2023/07/12 07:37:43;;;;;;;17.25;13.82;;;;;25.40;98256.00;;;;5011383;28;20050;-64
2023/07/12 07:40:10;;;;;;;16.85;11.98;;;;;25.50;98245.00;;;;5010664;28;20046;-64
2023/07/12 07:42:40;;;;;;;14.38;12.18;;;;;25.60;98248.00;;;;5012435;28;20038;-63
2023/07/12 07:45:09;;;;;;;13.52;11.93;;;;;25.70;98259.00;;;;5011047;28;20049;-64
2023/07/12 07:47:36;;;;;;;13.57;10.93;;;;;25.70;98256.00;;;;5012528;28;20045;-64
2023/07/12 07:50:06;;;;;;;12.40;11.15;;;;;25.60;98248.00;;;;5011497;28;20511;-64
2023/07/12 07:52:33;;;;;;;10.75;9.73;;;;;25.70;98250.00;;;;5012527;28;20038;-64
2023/07/12 07:55:00;;;;;;;12.60;9.57;;;;;25.70;98248.00;;;;5012225;28;20045;-64
2023/07/12 07:57:27;;;;;;;12.13;9.48;;;;;25.80;98249.00;;;;5012602;28;20049;-65
2023/07/12 07:59:54;;;;;;;10.43;8.43;;;;;25.80;98254.00;;;;5011920;28;20124;-64
2023/07/12 08:02:22;;;;;;;18.35;10.85;;;;;25.70;98252.00;;;;5012495;28;20049;-64
2023/07/12 08:04:49;;;;;;;12.80;8.55;;;;;25.90;98258.00;;;;5027227;28;20500;-64
2023/07/12 08:07:16;;;;;;;10.82;9.13;;;;;25.90;98248.00;;;;5012551;28;20108;-63
2023/07/12 08:09:43;;;;;;;10.15;8.43;;;;;25.90;98252.00;;;;5010354;28;20419;-64
2023/07/12 08:12:10;;;;;;;13.75;8.55;;;;;25.80;98251.00;;;;5012396;28;20060;-67
2023/07/12 08:14:36;;;;;;;13.77;8.70;;;;;25.80;98258.00;;;;5012043;28;20069;-66
2023/07/12 08:17:03;;;;;;;11.50;6.72;;;;;25.90;98245.00;;;;5027747;28;20046;-66
2023/07/12 08:19:30;;;;;;;12.13;6.68;;;;;26.10;98245.00;;;;5010574;28;20046;-67
2023/07/12 08:21:56;;;;;;;10.32;7.22;;;;;26.10;98265.00;;;;5027722;28;20046;-66
2023/07/12 08:24:23;;;;;;;9.05;6.30;;;;;25.90;98253.00;;;;5011088;28;20140;-67
2023/07/12 08:26:50;;;;;;;6.25;4.78;;;;;25.90;98262.00;;;;5027496;28;20041;-67
2023/07/12 08:29:32;;;;;;;7.82;5.35;;;;;26.00;98260.00;;;;5010434;28;20104;-66
2023/07/12 08:31:59;;;;;;;9.43;5.32;;;;;26.10;98262.00;;;;5027154;28;20038;-67
2023/07/12 08:34:26;;;;;;;8.75;4.85;;;;;26.20;98266.00;;;;5010783;28;20057;-67
2023/07/12 08:36:52;;;;;;;5.63;4.43;;;;;26.30;98278.00;;;;5012113;28;20120;-68
2023/07/12 08:39:19;;;;;;;5.30;4.80;;;;;26.30;98275.00;;;;4993741;28;20148;-66
2023/07/12 08:41:45;;;;;;;7.10;4.75;;;;;26.30;98275.00;;;;5011958;28;20046;-67
2023/07/12 08:44:14;;;;;;;7.70;4.28;;;;;26.30;98272.00;;;;5010923;28;20042;-67
2023/07/12 08:46:46;;;;;;;6.93;4.60;;;;;26.40;98267.00;;;;5012050;28;20050;-67
2023/07/12 08:49:15;;;;;;;5.07;4.50;;;;;26.50;98280.00;;;;5012602;28;20046;-67
2023/07/12 08:51:42;;;;;;;7.97;3.78;;;;;26.50;98274.00;;;;5027266;28;20092;-66
2023/07/12 08:54:34;;;;;;;4.88;3.45;;;;;26.60;98289.00;;;;5012443;28;20469;-67
2023/07/12 08:57:15;;;;;;;3.65;3.30;;;;;26.60;98282.00;;;;5012958;28;20050;-67
2023/07/12 08:59:44;;;;;;;5.22;4.00;;;;;26.70;98278.00;;;;5015336;28;20054;-66
2023/07/12 09:02:19;;;;;;;7.07;4.22;;;;;26.90;98269.00;;;;5030899;28;20070;-66
2023/07/12 09:04:46;;;;;;;5.55;4.35;;;;;26.90;98279.00;;;;5031197;28;20053;-66
2023/07/12 09:07:21;;;;;;;5.25;4.40;;;;;26.90;98280.00;;;;5014805;28;20049;-66
2023/07/12 09:09:49;;;;;;;5.32;4.70;;;;;26.80;98281.00;;;;5014012;28;20049;-65
2023/07/12 09:12:26;;;;;;;7.28;4.65;;;;;26.80;98280.00;;;;5014997;28;20073;-65
2023/07/12 09:14:58;;;;;;;7.93;5.55;;;;;26.90;98298.00;;;;4977768;28;20042;-66
2023/07/12 09:17:28;;;;;;;8.25;5.55;;;;;26.80;98291.00;;;;4995807;28;20046;-67
2023/07/12 09:19:55;;;;;;;9.73;6.03;;;;;26.90;98281.00;;;;4996166;28;20495;-66
2023/07/12 09:22:22;;;;;;;10.60;6.15;;;;;27.00;98288.00;;;;5011217;28;20121;-68
2023/07/12 09:24:56;;;;;;;7.90;6.53;;;;;27.20;98297.00;;;;4996656;28;20053;-69
2023/07/12 09:27:27;;;;;;;9.93;5.93;;;;;27.20;98310.00;;;;5012328;28;20056;-69
2023/07/12 09:30:01;;;;;;;5.63;4.55;;;;;27.00;98298.00;;;;4996819;28;20034;-71
2023/07/12 09:32:32;;;;;;;4.65;4.25;;;;;26.80;98303.00;;;;4996056;28;20050;-70
2023/07/12 09:34:59;;;;;;;5.80;4.97;;;;;26.60;98311.00;;;;4982574;28;20070;-69
2023/07/12 09:37:26;;;;;;;6.85;5.32;;;;;26.50;98311.00;;;;5016930;28;20053;-69
2023/07/12 09:40:01;;;;;;;6.45;5.65;;;;;26.40;98304.00;;;;4995592;28;20042;-69
2023/07/12 09:42:29;;;;;;;6.80;6.10;;;;;26.40;98319.00;;;;5000783;28;20051;-67
2023/07/12 09:44:58;;;;;;;7.00;5.97;;;;;26.40;98316.00;;;;4998917;28;20043;-67
2023/07/12 09:47:41;;;;;;;5.80;5.28;;;;;26.50;98324.00;;;;4997235;28;20105;-66
2023/07/12 09:50:19;;;;;;;;;;;;;26.70;98323.00;;;;4995215;28;20061;-67
2023/07/12 09:52:54;;;;;;;4.72;4.10;;;;;26.80;98305.00;;;;5010210;28;19957;-67
2023/07/12 09:55:26;;;;;;;4.80;3.25;;;;;27.00;98313.00;;;;5010077;28;20440;-65
2023/07/12 09:58:20;;;;;;;6.82;3.10;;;;;27.00;98326.00;;;;4993647;28;20529;-64
2023/07/12 10:00:54;;;;;;;3.30;2.63;;;;;26.90;98316.00;;;;5009191;28;20053;-64
2023/07/12 10:03:24;;;;;;;5.07;2.67;;;;;26.70;98328.00;;;;4993244;28;20042;-64
2023/07/12 10:06:00;;;;;;;3.75;2.28;;;;;26.60;98319.00;;;;4977249;28;20056;-65
2023/07/12 10:08:46;;;;;;;4.55;2.97;;;;;26.60;98317.00;;;;4994566;28;20462;-65
2023/07/12 10:11:26;;;;;;;3.70;2.40;;;;;26.70;98318.00;;;;4994042;28;20074;-66
2023/07/12 10:14:01;;;;;;;4.53;2.35;;;;;26.80;98326.00;;;;4993278;28;20136;-68
2023/07/12 10:16:34;;;;;;;4.55;2.20;;;;;26.70;98327.00;;;;4994938;28;20057;-67
2023/07/12 10:19:15;;;;;;;3.08;2.30;;;;;26.80;98324.00;;;;4994312;28;20077;-64
2023/07/12 10:21:42;;;;;;;5.18;2.28;;;;;26.90;98318.00;;;;4994336;28;20053;-66
2023/07/12 10:24:14;;;;;;;3.63;2.53;;;;;27.10;98318.00;;;;4992978;28;20042;-66
2023/07/12 10:26:43;;;;;;;4.70;2.70;;;;;27.10;98322.00;;;;5009209;28;20478;-65
2023/07/12 10:29:25;;;;;;;3.20;2.33;;;;;27.20;98319.00;;;;4992407;28;20465;-65
2023/07/12 10:31:58;;;;;;;3.15;2.33;;;;;27.40;98314.00;;;;4994322;28;20511;-64
2023/07/12 10:34:35;;;;;;;5.32;2.63;;;;;27.60;98321.00;;;;5008986;28;20035;-65
2023/07/12 10:37:12;;;;;;;5.28;3.95;;;;;27.60;98313.00;;;;4994209;28;20046;-65
2023/07/12 10:39:40;;;;;;;3.63;2.17;;;;;27.60;98317.00;;;;4976153;28;20082;-65
2023/07/12 10:42:30;;;;;;;5.07;2.25;;;;;27.70;98306.00;;;;4995336;28;20050;-65
2023/07/12 10:44:59;;;;;;;4.85;2.40;;;;;27.80;98316.00;;;;4993993;28;20079;-65
2023/07/12 10:47:34;;;;;;;6.82;2.30;;;;;27.80;98316.00;;;;4993926;28;20434;-65
2023/07/12 10:50:19;;;;;;;4.38;2.45;;;;;27.80;98313.00;;;;5008596;28;20058;-64
2023/07/12 10:53:14;;;;;;;4.38;2.28;;;;;28.00;98323.00;;;;5009061;28;20415;-66
2023/07/12 10:56:15;;;;;;;3.63;2.10;;;;;28.10;98323.00;;;;4992521;28;20119;-65
2023/07/12 10:58:57;;;;;;;3.92;1.83;;;;;28.20;98327.00;;;;4992546;28;20054;-65
2023/07/12 11:01:42;;;;;;;6.15;1.70;;;;;28.10;98324.00;;;;4992986;28;20454;-65
2023/07/12 11:04:25;;;;;;;4.03;1.80;;;;;28.10;98327.00;;;;4993511;28;20077;-65
2023/07/12 11:07:15;;;;;;;4.78;2.03;;;;;28.20;98320.00;;;;4993566;28;20050;-65
2023/07/12 11:09:42;;;;;;;5.28;2.10;;;;;28.40;98323.00;;;;4992984;28;20074;-65
2023/07/12 11:12:15;;;;;;;1.67;1.55;;;;;28.70;98326.00;;;;4992350;28;20054;-66
2023/07/12 11:14:43;;;;;;;2.92;1.55;;;;;28.70;98324.00;;;;4993624;28;20042;-66
2023/07/12 11:17:13;;;;;;;4.78;2.10;;;;;28.60;98328.00;;;;4992404;28;20058;-65
2023/07/12 11:19:40;;;;;;;3.00;2.50;;;;;28.40;98323.00;;;;5007687;28;20053;-63
2023/07/12 11:22:17;;;;;;;1.85;1.67;;;;;28.40;98324.00;;;;4992089;28;20050;-64
2023/07/12 11:24:44;;;;;;;2.72;1.58;;;;;28.30;98328.00;;;;5008420;28;20515;-66
2023/07/12 11:27:31;;;;;;;3.25;1.70;;;;;28.30;98317.00;;;;4993777;28;20050;-63
2023/07/12 11:30:12;;;;;;;1.65;1.48;;;;;28.60;98317.00;;;;4991918;28;20050;-64
2023/07/12 11:32:40;;;;;;;1.70;1.40;;;;;28.80;98326.00;;;;5008888;28;20060;-65
2023/07/12 11:35:15;;;;;;;1.45;1.33;;;;;28.80;98316.00;;;;4993432;28;20133;-65
2023/07/12 11:37:52;;;;;;;2.20;1.90;;;;;29.00;98322.00;;;;4993233;28;20104;-65
2023/07/12 11:40:22;;;;;;;3.28;1.65;;;;;29.10;98324.00;;;;4992481;28;20491;-64
2023/07/12 11:42:49;;;;;;;1.50;1.02;;;;;29.20;98332.00;;;;4992523;28;20050;-67
2023/07/12 11:45:20;;;;;;;1.83;1.23;;;;;29.20;98332.00;;;;4992713;28;20169;-66
2023/07/12 11:47:49;;;;;;;2.30;1.48;;;;;29.30;98333.00;;;;4993946;28;20049;-66
2023/07/12 11:50:27;;;;;;;2.58;1.20;;;;;29.30;98332.00;;;;5008137;28;20497;-66
2023/07/12 11:52:55;;;;;;;4.43;1.35;;;;;29.10;98326.00;;;;5009219;28;20076;-66
2023/07/12 11:55:27;;;;;;;2.90;1.20;;;;;29.10;98325.00;;;;5008831;28;20089;-65
2023/07/12 11:57:55;;;;;;;2.60;1.17;;;;;29.20;98324.00;;;;4993414;28;20050;-66
2023/07/12 12:00:25;;;;;;;1.55;1.38;;;;;29.30;98311.00;;;;5008191;28;20038;-65
2023/07/12 12:02:58;;;;;;;3.08;1.20;;;;;29.60;98312.00;;;;4993582;28;20054;-65
2023/07/12 12:05:32;;;;;;;2.30;1.50;;;;;29.60;98318.00;;;;4992509;28;20089;-65
2023/07/12 12:08:00;;;;;;;9.45;5.95;;;;;29.60;98317.00;;;;5008564;28;20066;-67
2023/07/12 12:10:29;;;;;;;2.20;1.35;;;;;29.80;98327.00;;;;4991990;28;20046;-65
2023/07/12 12:12:57;;;;;;;1.40;1.30;;;;;29.70;98324.00;;;;5008271;28;20050;-64
2023/07/12 12:15:27;;;;;;;1.92;1.63;;;;;29.50;98327.00;;;;5008621;28;20109;-63
2023/07/12 12:17:55;;;;;;;1.25;1.10;;;;;29.20;98315.00;;;;4992462;28;20476;-64
2023/07/12 12:20:28;;;;;;;1.45;1.23;;;;;29.20;98317.00;;;;4992841;28;20097;-64
2023/07/12 12:23:04;;;;;;;1.63;1.02;;;;;29.40;98319.00;;;;5007634;28;20046;-64
2023/07/12 12:25:31;;;;;;;1.38;1.23;;;;;29.70;98321.00;;;;5007779;28;20042;-65